sensor_id;sensor_type;location;lat;lon;timestamp;pressure;altitude;pressure_sealevel;temperature;humidity
13767;BME280;47980;48.794;9.176;2022-12-18T00:03:06;99359.03;;;-6.61;87.99
13767;BME280;47980;48.794;9.176;2022-12-18T00:05:50;99359.22;;;-6.77;87.30
13767;BME280;47980;48.794;9.176;2022-12-18T00:08:25;99369.63;;;-6.70;88.84
13767;BME280;47980;48.794;9.176;2022-12-18T00:11:03;99361.34;;;-6.66;87.60
13767;BME280;47980;48.794;9.176;2022-12-18T00:13:35;99360.97;;;-6.63;87.34
13767;BME280;47980;48.794;9.176;2022-12-18T00:16:10;99362.44;;;-6.75;87.20
13767;BME280;47980;48.794;9.176;2022-12-18T00:18:42;99371.50;;;-6.94;88.35
13767;BME280;47980;48.794;9.176;2022-12-18T00:21:16;99367.50;;;-6.82;88.61
13767;BME280;47980;48.794;9.176;2022-12-18T00:23:51;99362.94;;;-6.80;88.64
13767;BME280;47980;48.794;9.176;2022-12-18T00:26:25;99353.72;;;-6.74;88.58
13767;BME280;47980;48.794;9.176;2022-12-18T00:29:02;99356.41;;;-6.82;88.27
13767;BME280;47980;48.794;9.176;2022-12-18T00:31:37;99354.63;;;-6.82;86.12
13767;BME280;47980;48.794;9.176;2022-12-18T00:34:13;99361.38;;;-6.95;87.55
13767;BME280;47980;48.794;9.176;2022-12-18T00:36:49;99368.69;;;-7.14;90.14
13767;BME280;47980;48.794;9.176;2022-12-18T00:39:21;99367.06;;;-6.85;91.47
13767;BME280;47980;48.794;9.176;2022-12-18T00:41:54;99384.41;;;-7.09;91.16
13767;BME280;47980;48.794;9.176;2022-12-18T00:52:35;99373.19;;;-7.01;89.52
13767;BME280;47980;48.794;9.176;2022-12-18T00:55:11;99367.88;;;-6.99;88.44
13767;BME280;47980;48.794;9.176;2022-12-18T00:57:43;99365.03;;;-7.19;87.94
13767;BME280;47980;48.794;9.176;2022-12-18T01:00:16;99372.31;;;-7.08;87.80
13767;BME280;47980;48.794;9.176;2022-12-18T01:02:49;99362.44;;;-7.05;88.21
13767;BME280;47980;48.794;9.176;2022-12-18T01:05:23;99367.97;;;-7.08;87.82
13767;BME280;47980;48.794;9.176;2022-12-18T01:08:02;99366.66;;;-7.18;86.81
13767;BME280;47980;48.794;9.176;2022-12-18T01:10:34;99362.66;;;-7.21;87.15
13767;BME280;47980;48.794;9.176;2022-12-18T01:13:06;99361.94;;;-7.15;88.06
13767;BME280;47980;48.794;9.176;2022-12-18T01:15:39;99365.41;;;-7.08;88.16
13767;BME280;47980;48.794;9.176;2022-12-18T01:18:13;99368.22;;;-7.03;86.84
13767;BME280;47980;48.794;9.176;2022-12-18T01:20:45;99363.69;;;-7.15;87.63
13767;BME280;47980;48.794;9.176;2022-12-18T01:23:34;99365.91;;;-6.97;88.11
13767;BME280;47980;48.794;9.176;2022-12-18T01:26:19;99379.53;;;-6.89;88.12
13767;BME280;47980;48.794;9.176;2022-12-18T01:28:51;99374.44;;;-6.82;88.77
13767;BME280;47980;48.794;9.176;2022-12-18T01:31:25;99379.50;;;-6.74;89.08
13767;BME280;47980;48.794;9.176;2022-12-18T01:34:03;99374.16;;;-6.87;87.20
13767;BME280;47980;48.794;9.176;2022-12-18T01:36:38;99368.34;;;-7.11;89.57
13767;BME280;47980;48.794;9.176;2022-12-18T01:39:13;99379.06;;;-6.92;89.35
13767;BME280;47980;48.794;9.176;2022-12-18T01:41:46;99371.91;;;-6.61;89.10
13767;BME280;47980;48.794;9.176;2022-12-18T01:44:58;99379.31;;;-6.87;88.23
13767;BME280;47980;48.794;9.176;2022-12-18T01:47:35;99377.91;;;-6.75;89.44
13767;BME280;47980;48.794;9.176;2022-12-18T01:50:11;99378.78;;;-6.68;88.97
13767;BME280;47980;48.794;9.176;2022-12-18T01:52:47;99383.28;;;-6.55;90.06
13767;BME280;47980;48.794;9.176;2022-12-18T01:55:24;99386.75;;;-6.63;87.34
13767;BME280;47980;48.794;9.176;2022-12-18T01:57:59;99384.38;;;-6.64;87.51
13767;BME280;47980;48.794;9.176;2022-12-18T02:00:32;99379.94;;;-6.70;86.85
13767;BME280;47980;48.794;9.176;2022-12-18T02:03:05;99372.66;;;-6.82;87.33
13767;BME280;47980;48.794;9.176;2022-12-18T02:05:44;99381.19;;;-6.81;88.54
13767;BME280;47980;48.794;9.176;2022-12-18T02:08:23;99370.44;;;-6.85;88.37
13767;BME280;47980;48.794;9.176;2022-12-18T02:11:08;99369.44;;;-6.84;88.97
13767;BME280;47980;48.794;9.176;2022-12-18T02:13:51;99372.38;;;-6.72;90.26
13767;BME280;47980;48.794;9.176;2022-12-18T02:16:30;99366.84;;;-6.69;90.40
13767;BME280;47980;48.794;9.176;2022-12-18T02:19:15;99377.69;;;-6.59;89.46
13767;BME280;47980;48.794;9.176;2022-12-18T02:21:57;99373.94;;;-6.56;89.20
13767;BME280;47980;48.794;9.176;2022-12-18T02:24:35;99381.28;;;-6.38;89.69
13767;BME280;47980;48.794;9.176;2022-12-18T02:27:15;99375.09;;;-6.59;87.15
13767;BME280;47980;48.794;9.176;2022-12-18T02:29:50;99361.16;;;-6.79;88.20
13767;BME280;47980;48.794;9.176;2022-12-18T02:32:25;99385.25;;;-6.72;88.34
13767;BME280;47980;48.794;9.176;2022-12-18T02:34:59;99380.03;;;-6.64;89.99
13767;BME280;47980;48.794;9.176;2022-12-18T02:37:34;99393.94;;;-6.58;88.74
13767;BME280;47980;48.794;9.176;2022-12-18T02:40:09;99390.66;;;-6.52;88.20
13767;BME280;47980;48.794;9.176;2022-12-18T02:42:43;99384.09;;;-6.69;89.38
13767;BME280;47980;48.794;9.176;2022-12-18T02:45:15;99392.31;;;-6.81;89.84
13767;BME280;47980;48.794;9.176;2022-12-18T02:47:57;99390.59;;;-6.73;90.32
13767;BME280;47980;48.794;9.176;2022-12-18T02:50:35;99394.53;;;-6.78;90.79
13767;BME280;47980;48.794;9.176;2022-12-18T02:53:15;99403.50;;;-6.73;89.14
13767;BME280;47980;48.794;9.176;2022-12-18T02:55:56;99405.63;;;-6.77;89.37
13767;BME280;47980;48.794;9.176;2022-12-18T02:58:39;99402.63;;;-6.81;88.82
13767;BME280;47980;48.794;9.176;2022-12-18T03:01:16;99401.56;;;-6.86;90.21
13767;BME280;47980;48.794;9.176;2022-12-18T03:03:52;99396.91;;;-6.76;90.54
13767;BME280;47980;48.794;9.176;2022-12-18T03:06:29;99385.97;;;-6.63;90.05
13767;BME280;47980;48.794;9.176;2022-12-18T03:09:07;99392.81;;;-6.56;89.95
13767;BME280;47980;48.794;9.176;2022-12-18T03:11:42;99394.53;;;-6.78;89.89
13767;BME280;47980;48.794;9.176;2022-12-18T03:14:37;99398.25;;;-6.80;90.87
13767;BME280;47980;48.794;9.176;2022-12-18T03:17:10;99405.88;;;-6.42;90.66
13767;BME280;47980;48.794;9.176;2022-12-18T03:19:46;99407.75;;;-6.66;89.94
13767;BME280;47980;48.794;9.176;2022-12-18T03:22:19;99406.53;;;-6.70;89.19
13767;BME280;47980;48.794;9.176;2022-12-18T03:24:53;99406.16;;;-6.67;88.81
13767;BME280;47980;48.794;9.176;2022-12-18T03:27:28;99405.56;;;-6.84;88.40
13767;BME280;47980;48.794;9.176;2022-12-18T03:30:06;99413.84;;;-6.88;87.91
13767;BME280;47980;48.794;9.176;2022-12-18T03:32:43;99410.72;;;-6.84;88.72
13767;BME280;47980;48.794;9.176;2022-12-18T03:35:20;99415.19;;;-6.92;89.39
13767;BME280;47980;48.794;9.176;2022-12-18T03:37:53;99416.59;;;-6.90;88.96
13767;BME280;47980;48.794;9.176;2022-12-18T03:40:30;99422.91;;;-6.92;87.93
13767;BME280;47980;48.794;9.176;2022-12-18T03:43:08;99414.53;;;-6.80;88.53
13767;BME280;47980;48.794;9.176;2022-12-18T03:45:50;99406.44;;;-6.91;87.85
13767;BME280;47980;48.794;9.176;2022-12-18T03:48:29;99398.81;;;-6.99;87.15
13767;BME280;47980;48.794;9.176;2022-12-18T03:51:05;99402.53;;;-7.02;88.08
13767;BME280;47980;48.794;9.176;2022-12-18T03:53:43;99406.66;;;-7.08;86.98
13767;BME280;47980;48.794;9.176;2022-12-18T03:56:18;99415.25;;;-7.15;87.76
13767;BME280;47980;48.794;9.176;2022-12-18T03:58:52;99410.28;;;-7.17;87.90
13767;BME280;47980;48.794;9.176;2022-12-18T04:01:31;99411.97;;;-7.09;89.44
13767;BME280;47980;48.794;9.176;2022-12-18T04:04:04;99407.97;;;-6.97;89.12
13767;BME280;47980;48.794;9.176;2022-12-18T04:06:38;99408.50;;;-7.02;87.71
13767;BME280;47980;48.794;9.176;2022-12-18T04:09:12;99404.88;;;-7.07;87.37
13767;BME280;47980;48.794;9.176;2022-12-18T04:11:46;99409.28;;;-7.01;86.62
13767;BME280;47980;48.794;9.176;2022-12-18T04:14:18;99400.31;;;-7.05;87.37
13767;BME280;47980;48.794;9.176;2022-12-18T04:16:51;99395.59;;;-7.02;86.83
13767;BME280;47980;48.794;9.176;2022-12-18T04:19:23;99416.50;;;-6.96;86.64
13767;BME280;47980;48.794;9.176;2022-12-18T04:21:55;99412.06;;;-7.03;86.78
13767;BME280;47980;48.794;9.176;2022-12-18T04:24:27;99404.31;;;-7.03;87.18
13767;BME280;47980;48.794;9.176;2022-12-18T04:26:58;99404.88;;;-7.07;86.63
13767;BME280;47980;48.794;9.176;2022-12-18T04:29:30;99408.06;;;-7.05;87.38
13767;BME280;47980;48.794;9.176;2022-12-18T04:32:03;99416.22;;;-7.02;88.04
13767;BME280;47980;48.794;9.176;2022-12-18T04:34:35;99428.97;;;-7.00;88.38
13767;BME280;47980;48.794;9.176;2022-12-18T04:37:07;99429.75;;;-6.85;88.79
13767;BME280;47980;48.794;9.176;2022-12-18T04:39:38;99424.94;;;-6.73;88.57
13767;BME280;47980;48.794;9.176;2022-12-18T04:42:10;99426.03;;;-6.82;87.34
13767;BME280;47980;48.794;9.176;2022-12-18T04:44:42;99429.03;;;-6.79;88.13
13767;BME280;47980;48.794;9.176;2022-12-18T04:47:15;99414.06;;;-6.68;88.75
13767;BME280;47980;48.794;9.176;2022-12-18T04:49:47;99405.63;;;-6.62;87.93
13767;BME280;47980;48.794;9.176;2022-12-18T04:52:19;99406.13;;;-6.52;88.13
13767;BME280;47980;48.794;9.176;2022-12-18T04:54:50;99401.53;;;-6.57;88.83
13767;BME280;47980;48.794;9.176;2022-12-18T04:57:22;99389.66;;;-6.51;87.83
13767;BME280;47980;48.794;9.176;2022-12-18T04:59:54;99387.09;;;-6.51;88.34
13767;BME280;47980;48.794;9.176;2022-12-18T05:02:28;99401.19;;;-6.53;87.90
13767;BME280;47980;48.794;9.176;2022-12-18T05:05:00;99408.47;;;-6.57;87.51
13767;BME280;47980;48.794;9.176;2022-12-18T05:07:31;99404.81;;;-6.63;86.89
13767;BME280;47980;48.794;9.176;2022-12-18T05:10:04;99404.03;;;-6.63;87.65
13767;BME280;47980;48.794;9.176;2022-12-18T05:12:39;99399.47;;;-6.61;86.30
13767;BME280;47980;48.794;9.176;2022-12-18T05:15:29;99402.16;;;-6.69;86.61
13767;BME280;47980;48.794;9.176;2022-12-18T05:18:03;99396.66;;;-6.81;86.01
13767;BME280;47980;48.794;9.176;2022-12-18T05:20:34;99400.03;;;-6.81;87.16
13767;BME280;47980;48.794;9.176;2022-12-18T05:23:06;99413.38;;;-6.77;87.81
13767;BME280;47980;48.794;9.176;2022-12-18T05:25:38;99422.44;;;-6.66;87.38
13767;BME280;47980;48.794;9.176;2022-12-18T05:28:10;99425.72;;;-6.72;87.40
13767;BME280;47980;48.794;9.176;2022-12-18T05:30:42;99435.44;;;-6.89;87.21
13767;BME280;47980;48.794;9.176;2022-12-18T05:33:20;99425.47;;;-6.78;86.12
13767;BME280;47980;48.794;9.176;2022-12-18T05:35:54;99427.16;;;-6.85;85.63
13767;BME280;47980;48.794;9.176;2022-12-18T05:38:27;99431.78;;;-6.95;87.14
13767;BME280;47980;48.794;9.176;2022-12-18T05:40:59;99439.38;;;-6.93;87.91
13767;BME280;47980;48.794;9.176;2022-12-18T05:43:33;99433.22;;;-7.07;86.79
13767;BME280;47980;48.794;9.176;2022-12-18T05:46:15;99435.97;;;-7.09;86.66
13767;BME280;47980;48.794;9.176;2022-12-18T05:48:59;99436.84;;;-7.02;85.99
13767;BME280;47980;48.794;9.176;2022-12-18T05:51:33;99435.97;;;-6.94;85.74
13767;BME280;47980;48.794;9.176;2022-12-18T06:02:19;99418.81;;;-7.02;87.25
13767;BME280;47980;48.794;9.176;2022-12-18T06:04:52;99425.03;;;-6.96;87.39
13767;BME280;47980;48.794;9.176;2022-12-18T06:07:24;99424.16;;;-6.88;86.60
13767;BME280;47980;48.794;9.176;2022-12-18T06:09:56;99424.50;;;-6.91;85.42
13767;BME280;47980;48.794;9.176;2022-12-18T06:12:27;99433.28;;;-7.15;86.34
13767;BME280;47980;48.794;9.176;2022-12-18T06:14:59;99431.69;;;-7.02;84.85
13767;BME280;47980;48.794;9.176;2022-12-18T06:17:31;99432.88;;;-7.04;85.24
13767;BME280;47980;48.794;9.176;2022-12-18T06:20:05;99434.63;;;-7.05;85.97
13767;BME280;47980;48.794;9.176;2022-12-18T06:22:37;99428.75;;;-7.13;85.44
13767;BME280;47980;48.794;9.176;2022-12-18T06:25:09;99428.50;;;-7.18;84.20
13767;BME280;47980;48.794;9.176;2022-12-18T06:27:41;99442.34;;;-7.19;84.39
13767;BME280;47980;48.794;9.176;2022-12-18T06:30:13;99431.25;;;-7.05;85.26
13767;BME280;47980;48.794;9.176;2022-12-18T06:32:45;99445.66;;;-7.25;83.39
13767;BME280;47980;48.794;9.176;2022-12-18T06:35:18;99443.56;;;-7.30;85.15
13767;BME280;47980;48.794;9.176;2022-12-18T06:37:50;99449.41;;;-7.51;83.60
13767;BME280;47980;48.794;9.176;2022-12-18T06:40:22;99460.78;;;-7.45;84.93
13767;BME280;47980;48.794;9.176;2022-12-18T06:42:53;99464.91;;;-7.36;85.45
13767;BME280;47980;48.794;9.176;2022-12-18T06:45:25;99462.34;;;-7.36;85.10
13767;BME280;47980;48.794;9.176;2022-12-18T06:47:57;99461.91;;;-7.48;85.74
13767;BME280;47980;48.794;9.176;2022-12-18T06:50:30;99449.91;;;-7.56;86.31
13767;BME280;47980;48.794;9.176;2022-12-18T06:53:02;99456.28;;;-7.43;86.00
13767;BME280;47980;48.794;9.176;2022-12-18T06:55:34;99451.03;;;-7.35;85.96
13767;BME280;47980;48.794;9.176;2022-12-18T06:58:05;99444.91;;;-7.34;85.78
13767;BME280;47980;48.794;9.176;2022-12-18T07:00:37;99450.84;;;-7.34;85.36
13767;BME280;47980;48.794;9.176;2022-12-18T07:03:09;99456.84;;;-7.33;86.12
13767;BME280;47980;48.794;9.176;2022-12-18T07:05:42;99460.91;;;-7.39;84.76
13767;BME280;47980;48.794;9.176;2022-12-18T07:08:13;99461.00;;;-7.32;85.11
13767;BME280;47980;48.794;9.176;2022-12-18T07:10:45;99470.16;;;-7.30;84.41
13767;BME280;47980;48.794;9.176;2022-12-18T07:13:19;99484.00;;;-7.31;84.50
13767;BME280;47980;48.794;9.176;2022-12-18T07:15:51;99479.94;;;-7.25;84.13
13767;BME280;47980;48.794;9.176;2022-12-18T07:18:22;99478.34;;;-7.26;84.60
13767;BME280;47980;48.794;9.176;2022-12-18T07:20:55;99483.50;;;-7.26;84.05
13767;BME280;47980;48.794;9.176;2022-12-18T07:23:27;99487.94;;;-7.20;85.25
13767;BME280;47980;48.794;9.176;2022-12-18T07:26:01;99486.00;;;-7.18;84.20
13767;BME280;47980;48.794;9.176;2022-12-18T07:28:34;99484.31;;;-7.11;84.37
13767;BME280;47980;48.794;9.176;2022-12-18T07:31:10;99482.81;;;-7.05;83.78
13767;BME280;47980;48.794;9.176;2022-12-18T07:33:43;99489.28;;;-7.09;83.46
13767;BME280;47980;48.794;9.176;2022-12-18T07:36:16;99484.91;;;-7.23;84.63
13767;BME280;47980;48.794;9.176;2022-12-18T07:38:48;99486.22;;;-6.90;83.17
13767;BME280;47980;48.794;9.176;2022-12-18T07:41:20;99492.53;;;-6.78;82.77
13767;BME280;47980;48.794;9.176;2022-12-18T07:43:52;99502.09;;;-7.01;79.79
13767;BME280;47980;48.794;9.176;2022-12-18T07:46:23;99502.72;;;-7.14;81.77
13767;BME280;47980;48.794;9.176;2022-12-18T07:48:55;99500.03;;;-7.20;80.45
13767;BME280;47980;48.794;9.176;2022-12-18T07:51:28;99508.28;;;-7.48;81.53
13767;BME280;47980;48.794;9.176;2022-12-18T07:53:59;99498.66;;;-7.69;84.42
13767;BME280;47980;48.794;9.176;2022-12-18T07:56:31;99502.22;;;-7.78;83.79
13767;BME280;47980;48.794;9.176;2022-12-18T07:59:02;99509.75;;;-7.68;83.88
13767;BME280;47980;48.794;9.176;2022-12-18T08:01:34;99509.97;;;-7.55;83.21
13767;BME280;47980;48.794;9.176;2022-12-18T08:04:05;99499.44;;;-7.68;84.99
13767;BME280;47980;48.794;9.176;2022-12-18T08:06:38;99505.56;;;-7.69;83.85
13767;BME280;47980;48.794;9.176;2022-12-18T08:09:10;99502.56;;;-7.35;84.85
13767;BME280;47980;48.794;9.176;2022-12-18T08:11:42;99505.56;;;-7.09;81.88
13767;BME280;47980;48.794;9.176;2022-12-18T08:14:13;99508.97;;;-6.93;80.84
13767;BME280;47980;48.794;9.176;2022-12-18T08:16:45;99505.34;;;-6.55;80.90
13767;BME280;47980;48.794;9.176;2022-12-18T08:19:16;99493.28;;;-6.18;79.91
13767;BME280;47980;48.794;9.176;2022-12-18T08:21:49;99500.09;;;-5.95;77.74
13767;BME280;47980;48.794;9.176;2022-12-18T08:24:20;99493.16;;;-5.95;77.85
13767;BME280;47980;48.794;9.176;2022-12-18T08:26:52;99497.88;;;-5.77;76.46
13767;BME280;47980;48.794;9.176;2022-12-18T08:29:23;99492.16;;;-5.51;75.96
13767;BME280;47980;48.794;9.176;2022-12-18T08:31:55;99495.75;;;-5.24;75.33
13767;BME280;47980;48.794;9.176;2022-12-18T08:34:26;99496.28;;;-5.07;75.05
13767;BME280;47980;48.794;9.176;2022-12-18T08:36:59;99505.66;;;-5.92;75.07
13767;BME280;47980;48.794;9.176;2022-12-18T08:39:31;99505.16;;;-6.38;79.30
13767;BME280;47980;48.794;9.176;2022-12-18T08:42:03;99508.28;;;-6.28;79.29
13767;BME280;47980;48.794;9.176;2022-12-18T08:44:52;99503.84;;;-5.55;76.00
13767;BME280;47980;48.794;9.176;2022-12-18T08:47:23;99505.28;;;-6.10;79.76
13767;BME280;47980;48.794;9.176;2022-12-18T08:49:56;99504.47;;;-5.89;78.14
13767;BME280;47980;48.794;9.176;2022-12-18T08:52:31;99512.38;;;-5.97;78.78
13767;BME280;47980;48.794;9.176;2022-12-18T08:55:03;99505.63;;;-5.55;78.47
13767;BME280;47980;48.794;9.176;2022-12-18T08:57:34;99502.34;;;-5.64;78.14
13767;BME280;47980;48.794;9.176;2022-12-18T09:00:07;99494.47;;;-5.56;78.11
13767;BME280;47980;48.794;9.176;2022-12-18T09:02:39;99491.66;;;-5.61;76.69
13767;BME280;47980;48.794;9.176;2022-12-18T09:05:11;99481.44;;;-5.26;76.30
13767;BME280;47980;48.794;9.176;2022-12-18T09:07:43;99480.94;;;-5.37;76.26
13767;BME280;47980;48.794;9.176;2022-12-18T09:10:15;99482.72;;;-5.09;75.23
13767;BME280;47980;48.794;9.176;2022-12-18T09:12:46;99488.47;;;-5.14;75.39
13767;BME280;47980;48.794;9.176;2022-12-18T09:15:18;99486.50;;;-4.77;73.96
13767;BME280;47980;48.794;9.176;2022-12-18T09:17:50;99483.16;;;-5.34;74.80
13767;BME280;47980;48.794;9.176;2022-12-18T09:20:23;99482.66;;;-4.88;74.29
13767;BME280;47980;48.794;9.176;2022-12-18T09:22:56;99489.13;;;-5.05;74.66
13767;BME280;47980;48.794;9.176;2022-12-18T09:25:28;99475.81;;;-4.26;73.27
13767;BME280;47980;48.794;9.176;2022-12-18T09:28:05;99473.16;;;-3.84;70.13
13767;BME280;47980;48.794;9.176;2022-12-18T09:30:37;99469.84;;;-4.26;71.26
13767;BME280;47980;48.794;9.176;2022-12-18T09:33:09;99469.56;;;-4.45;72.01
13767;BME280;47980;48.794;9.176;2022-12-18T09:35:42;99469.41;;;-4.30;73.89
13767;BME280;47980;48.794;9.176;2022-12-18T09:38:16;99471.63;;;-4.27;73.68
13767;BME280;47980;48.794;9.176;2022-12-18T09:40:51;99480.81;;;-4.66;76.36
13767;BME280;47980;48.794;9.176;2022-12-18T09:43:26;99474.34;;;-4.42;75.13
13767;BME280;47980;48.794;9.176;2022-12-18T09:46:02;99470.59;;;-4.39;74.18
13767;BME280;47980;48.794;9.176;2022-12-18T09:48:39;99473.25;;;-4.19;72.74
13767;BME280;47980;48.794;9.176;2022-12-18T09:51:17;99466.69;;;-4.15;72.31
13767;BME280;47980;48.794;9.176;2022-12-18T09:53:54;99447.47;;;-3.66;73.68
13767;BME280;47980;48.794;9.176;2022-12-18T09:56:28;99454.78;;;-4.03;72.35
13767;BME280;47980;48.794;9.176;2022-12-18T09:59:04;99458.81;;;-4.42;76.76
13767;BME280;47980;48.794;9.176;2022-12-18T10:01:35;99457.31;;;-4.71;80.03
13767;BME280;47980;48.794;9.176;2022-12-18T10:04:08;99460.41;;;-3.66;76.71
13767;BME280;47980;48.794;9.176;2022-12-18T10:06:45;99462.41;;;-3.08;74.17
13767;BME280;47980;48.794;9.176;2022-12-18T10:09:27;99465.22;;;-3.43;73.36
13767;BME280;47980;48.794;9.176;2022-12-18T10:12:06;99466.00;;;-3.23;73.83
13767;BME280;47980;48.794;9.176;2022-12-18T10:14:48;99458.75;;;-2.81;73.40
13767;BME280;47980;48.794;9.176;2022-12-18T10:17:26;99473.53;;;-2.75;72.35
13767;BME280;47980;48.794;9.176;2022-12-18T10:20:01;99469.78;;;-3.72;73.67
13767;BME280;47980;48.794;9.176;2022-12-18T10:22:43;99472.56;;;-3.53;75.14
13767;BME280;47980;48.794;9.176;2022-12-18T10:25:22;99475.34;;;-2.75;72.22
13767;BME280;47980;48.794;9.176;2022-12-18T10:27:57;99475.56;;;-3.50;73.72
13767;BME280;47980;48.794;9.176;2022-12-18T10:30:29;99476.56;;;-3.18;73.79
13767;BME280;47980;48.794;9.176;2022-12-18T10:33:00;99463.31;;;-2.63;71.62
13767;BME280;47980;48.794;9.176;2022-12-18T10:35:32;99461.47;;;-2.49;70.10
13767;BME280;47980;48.794;9.176;2022-12-18T10:38:07;99469.09;;;-2.61;73.17
13767;BME280;47980;48.794;9.176;2022-12-18T10:40:55;99473.69;;;-2.70;73.59
13767;BME280;47980;48.794;9.176;2022-12-18T10:43:28;99472.38;;;-2.27;72.13
13767;BME280;47980;48.794;9.176;2022-12-18T10:46:04;99462.53;;;-2.70;73.57
13767;BME280;47980;48.794;9.176;2022-12-18T10:48:48;99472.34;;;-2.79;75.14
13767;BME280;47980;48.794;9.176;2022-12-18T10:51:25;99461.50;;;-2.69;74.19
13767;BME280;47980;48.794;9.176;2022-12-18T10:54:00;99468.13;;;-2.80;75.80
13767;BME280;47980;48.794;9.176;2022-12-18T10:56:35;99465.56;;;-2.93;74.49
13767;BME280;47980;48.794;9.176;2022-12-18T10:59:09;99466.94;;;-2.84;76.13
13767;BME280;47980;48.794;9.176;2022-12-18T11:01:49;99474.34;;;-2.23;73.81
13767;BME280;47980;48.794;9.176;2022-12-18T11:04:23;99467.53;;;-1.85;71.26
13767;BME280;47980;48.794;9.176;2022-12-18T11:06:58;99462.50;;;-1.74;69.35
13767;BME280;47980;48.794;9.176;2022-12-18T11:09:31;99465.53;;;-2.22;72.25
13767;BME280;47980;48.794;9.176;2022-12-18T11:12:14;99458.63;;;-1.96;72.49
13767;BME280;47980;48.794;9.176;2022-12-18T11:14:47;99453.75;;;-2.17;73.77
13767;BME280;47980;48.794;9.176;2022-12-18T11:17:21;99440.91;;;-1.74;72.75
13767;BME280;47980;48.794;9.176;2022-12-18T11:19:55;99436.06;;;-1.71;72.52
13767;BME280;47980;48.794;9.176;2022-12-18T11:22:28;99431.63;;;-1.63;72.74
13767;BME280;47980;48.794;9.176;2022-12-18T11:25:03;99435.88;;;-1.44;71.42
13767;BME280;47980;48.794;9.176;2022-12-18T11:27:37;99434.44;;;-1.40;71.40
13767;BME280;47980;48.794;9.176;2022-12-18T11:30:21;99432.06;;;-1.41;71.79
13767;BME280;47980;48.794;9.176;2022-12-18T11:32:55;99428.16;;;-1.57;70.83
13767;BME280;47980;48.794;9.176;2022-12-18T11:35:38;99425.63;;;-1.96;73.43
13767;BME280;47980;48.794;9.176;2022-12-18T11:38:18;99426.63;;;-1.65;73.65
13767;BME280;47980;48.794;9.176;2022-12-18T11:40:58;99431.16;;;-1.85;75.50
13767;BME280;47980;48.794;9.176;2022-12-18T11:43:37;99425.19;;;-1.61;74.12
13767;BME280;47980;48.794;9.176;2022-12-18T11:46:13;99424.28;;;-1.48;73.54
13767;BME280;47980;48.794;9.176;2022-12-18T11:48:48;99424.34;;;-1.55;73.49
13767;BME280;47980;48.794;9.176;2022-12-18T11:51:26;99416.97;;;-1.58;73.44
13767;BME280;47980;48.794;9.176;2022-12-18T11:54:00;99413.38;;;-1.38;72.91
13767;BME280;47980;48.794;9.176;2022-12-18T11:56:46;99415.88;;;-1.50;73.03
13767;BME280;47980;48.794;9.176;2022-12-18T11:59:28;99421.72;;;-1.80;75.98
13767;BME280;47980;48.794;9.176;2022-12-18T12:02:16;99405.88;;;-1.28;73.55
13767;BME280;47980;48.794;9.176;2022-12-18T12:05:21;99399.56;;;-1.14;73.17
13767;BME280;47980;48.794;9.176;2022-12-18T12:08:01;99398.13;;;-0.91;72.65
13767;BME280;47980;48.794;9.176;2022-12-18T12:10:46;99393.69;;;-0.91;73.66
13767;BME280;47980;48.794;9.176;2022-12-18T12:13:37;99393.38;;;-1.88;75.65
13767;BME280;47980;48.794;9.176;2022-12-18T12:16:17;99382.84;;;-1.06;73.17
13767;BME280;47980;48.794;9.176;2022-12-18T12:19:02;99388.41;;;-1.03;72.61
13767;BME280;47980;48.794;9.176;2022-12-18T12:21:39;99391.38;;;-0.99;72.15
13767;BME280;47980;48.794;9.176;2022-12-18T12:24:24;99392.28;;;-1.05;72.41
13767;BME280;47980;48.794;9.176;2022-12-18T12:27:06;99393.00;;;-0.98;72.78
13767;BME280;47980;48.794;9.176;2022-12-18T12:29:50;99386.69;;;-0.72;72.47
13767;BME280;47980;48.794;9.176;2022-12-18T12:32:49;99394.56;;;-0.60;72.19
13767;BME280;47980;48.794;9.176;2022-12-18T12:35:32;99387.50;;;-0.41;71.00
13767;BME280;47980;48.794;9.176;2022-12-18T12:38:10;99388.59;;;-0.19;69.70
13767;BME280;47980;48.794;9.176;2022-12-18T12:40:47;99387.53;;;-0.30;70.14
13767;BME280;47980;48.794;9.176;2022-12-18T12:43:25;99388.56;;;-0.61;70.33
13767;BME280;47980;48.794;9.176;2022-12-18T12:45:58;99374.63;;;-0.55;69.98
13767;BME280;47980;48.794;9.176;2022-12-18T12:48:37;99382.41;;;-0.85;71.24
13767;BME280;47980;48.794;9.176;2022-12-18T12:51:16;99391.91;;;-0.90;71.39
13767;BME280;47980;48.794;9.176;2022-12-18T12:53:48;99394.09;;;-0.39;70.05
13767;BME280;47980;48.794;9.176;2022-12-18T12:56:21;99398.19;;;-0.31;70.94
13767;BME280;47980;48.794;9.176;2022-12-18T12:59:02;99404.91;;;-0.23;71.19
13767;BME280;47980;48.794;9.176;2022-12-18T13:01:40;99404.66;;;-0.04;69.75
13767;BME280;47980;48.794;9.176;2022-12-18T13:04:29;99406.25;;;0.09;68.82
13767;BME280;47980;48.794;9.176;2022-12-18T13:07:08;99394.81;;;0.10;69.53
13767;BME280;47980;48.794;9.176;2022-12-18T13:12:59;99399.59;;;0.13;68.63
13767;BME280;47980;48.794;9.176;2022-12-18T13:15:34;99402.16;;;0.02;68.51
13767;BME280;47980;48.794;9.176;2022-12-18T13:18:19;99402.09;;;0.20;68.39
13767;BME280;47980;48.794;9.176;2022-12-18T13:21:02;99404.34;;;0.16;68.08
13767;BME280;47980;48.794;9.176;2022-12-18T13:23:39;99394.50;;;0.18;69.16
13767;BME280;47980;48.794;9.176;2022-12-18T13:26:32;99388.41;;;0.71;67.58
13767;BME280;47980;48.794;9.176;2022-12-18T13:29:04;99394.84;;;1.04;67.15
13767;BME280;47980;48.794;9.176;2022-12-18T13:31:58;99391.88;;;1.12;65.69
13767;BME280;47980;48.794;9.176;2022-12-18T13:34:30;99376.41;;;1.23;66.37
13767;BME280;47980;48.794;9.176;2022-12-18T13:37:38;99379.44;;;0.91;66.62
13767;BME280;47980;48.794;9.176;2022-12-18T13:43:33;99380.53;;;0.24;67.42
13767;BME280;47980;48.794;9.176;2022-12-18T13:46:21;99377.84;;;0.31;69.74
13767;BME280;47980;48.794;9.176;2022-12-18T13:48:59;99379.31;;;0.39;68.90
13767;BME280;47980;48.794;9.176;2022-12-18T13:51:32;99376.81;;;0.32;69.21
13767;BME280;47980;48.794;9.176;2022-12-18T13:54:18;99369.66;;;0.28;70.06
13767;BME280;47980;48.794;9.176;2022-12-18T13:56:51;99372.53;;;-0.16;70.28
13767;BME280;47980;48.794;9.176;2022-12-18T13:59:24;99371.81;;;-0.53;72.47
13767;BME280;47980;48.794;9.176;2022-12-18T14:01:57;99374.31;;;-0.77;73.83
13767;BME280;47980;48.794;9.176;2022-12-18T14:04:31;99380.66;;;-0.24;72.86
13767;BME280;47980;48.794;9.176;2022-12-18T14:07:04;99376.69;;;-0.27;73.11
13767;BME280;47980;48.794;9.176;2022-12-18T14:09:41;99364.50;;;-0.03;72.19